sensor_id;sensor_type;location;lat;lon;timestamp;P1;durP1;ratioP1;P2;durP2;ratioP2
62724;SDS011;49026;52.600;4.694;2023-03-13T00:01:36;23.55;;;4.13;;
62724;SDS011;49026;52.600;4.694;2023-03-13T00:04:04;21.10;;;4.27;;
62724;SDS011;49026;52.600;4.694;2023-03-13T00:06:30;29.70;;;4.85;;
62724;SDS011;49026;52.600;4.694;2023-03-13T00:08:58;16.42;;;3.63;;
62724;SDS011;49026;52.600;4.694;2023-03-13T00:11:24;10.65;;;2.90;;
62724;SDS011;49026;52.600;4.694;2023-03-13T00:13:52;18.58;;;3.92;;
62724;SDS011;49026;52.600;4.694;2023-03-13T00:16:19;20.33;;;2.80;;
62724;SDS011;49026;52.600;4.694;2023-03-13T00:18:45;20.23;;;3.97;;
62724;SDS011;49026;52.600;4.694;2023-03-13T00:21:14;24.00;;;3.90;;
62724;SDS011;49026;52.600;4.694;2023-03-13T00:23:41;26.70;;;5.50;;
62724;SDS011;49026;52.600;4.694;2023-03-13T00:26:10;10.75;;;2.90;;
62724;SDS011;49026;52.600;4.694;2023-03-13T00:28:39;18.52;;;3.85;;
62724;SDS011;49026;52.600;4.694;2023-03-13T00:31:11;15.80;;;4.88;;
62724;SDS011;49026;52.600;4.694;2023-03-13T00:33:42;13.32;;;3.33;;
62724;SDS011;49026;52.600;4.694;2023-03-13T00:36:10;15.80;;;3.65;;
62724;SDS011;49026;52.600;4.694;2023-03-13T00:38:37;17.88;;;4.15;;
62724;SDS011;49026;52.600;4.694;2023-03-13T00:41:12;11.63;;;2.58;;
62724;SDS011;49026;52.600;4.694;2023-03-13T00:43:42;12.63;;;3.92;;
62724;SDS011;49026;52.600;4.694;2023-03-13T00:46:10;21.40;;;3.83;;
62724;SDS011;49026;52.600;4.694;2023-03-13T00:48:36;17.73;;;4.78;;
62724;SDS011;49026;52.600;4.694;2023-03-13T00:51:02;13.20;;;3.83;;
62724;SDS011;49026;52.600;4.694;2023-03-13T00:53:28;15.60;;;4.07;;
62724;SDS011;49026;52.600;4.694;2023-03-13T00:55:58;13.20;;;3.72;;
62724;SDS011;49026;52.600;4.694;2023-03-13T00:58:28;9.15;;;2.85;;
62724;SDS011;49026;52.600;4.694;2023-03-13T01:00:55;9.73;;;3.35;;
62724;SDS011;49026;52.600;4.694;2023-03-13T01:03:23;10.40;;;3.13;;
62724;SDS011;49026;52.600;4.694;2023-03-13T01:05:59;8.55;;;2.83;;
62724;SDS011;49026;52.600;4.694;2023-03-13T01:08:26;7.53;;;2.45;;
62724;SDS011;49026;52.600;4.694;2023-03-13T01:10:59;11.20;;;3.38;;
62724;SDS011;49026;52.600;4.694;2023-03-13T01:13:28;9.52;;;3.05;;
62724;SDS011;49026;52.600;4.694;2023-03-13T01:15:56;10.05;;;2.40;;
62724;SDS011;49026;52.600;4.694;2023-03-13T01:18:22;10.25;;;2.53;;
62724;SDS011;49026;52.600;4.694;2023-03-13T01:20:47;5.68;;;2.67;;
62724;SDS011;49026;52.600;4.694;2023-03-13T01:23:12;8.57;;;2.50;;
62724;SDS011;49026;52.600;4.694;2023-03-13T01:25:42;6.80;;;3.03;;
62724;SDS011;49026;52.600;4.694;2023-03-13T01:28:10;6.90;;;2.75;;
62724;SDS011;49026;52.600;4.694;2023-03-13T01:30:35;10.07;;;3.38;;
62724;SDS011;49026;52.600;4.694;2023-03-13T01:33:01;6.25;;;2.92;;
62724;SDS011;49026;52.600;4.694;2023-03-13T01:35:26;6.68;;;2.85;;
62724;SDS011;49026;52.600;4.694;2023-03-13T01:37:56;8.27;;;3.15;;
62724;SDS011;49026;52.600;4.694;2023-03-13T01:40:21;10.13;;;3.63;;
62724;SDS011;49026;52.600;4.694;2023-03-13T01:48:14;8.77;;;3.10;;
62724;SDS011;49026;52.600;4.694;2023-03-13T01:50:40;14.40;;;5.72;;
62724;SDS011;49026;52.600;4.694;2023-03-13T01:53:05;10.70;;;5.28;;
62724;SDS011;49026;52.600;4.694;2023-03-13T01:55:31;13.65;;;5.18;;
62724;SDS011;49026;52.600;4.694;2023-03-13T01:57:57;11.52;;;4.63;;
62724;SDS011;49026;52.600;4.694;2023-03-13T02:00:24;10.25;;;4.30;;
62724;SDS011;49026;52.600;4.694;2023-03-13T02:02:54;11.48;;;4.70;;
62724;SDS011;49026;52.600;4.694;2023-03-13T02:05:23;10.77;;;4.50;;
62724;SDS011;49026;52.600;4.694;2023-03-13T02:07:58;11.63;;;5.47;;
62724;SDS011;49026;52.600;4.694;2023-03-13T02:11:06;6.20;;;3.25;;
62724;SDS011;49026;52.600;4.694;2023-03-13T02:13:42;7.60;;;3.97;;
62724;SDS011;49026;52.600;4.694;2023-03-13T02:16:08;10.70;;;4.65;;
62724;SDS011;49026;52.600;4.694;2023-03-13T02:18:35;13.43;;;4.97;;
62724;SDS011;49026;52.600;4.694;2023-03-13T02:21:47;9.23;;;4.30;;
62724;SDS011;49026;52.600;4.694;2023-03-13T02:24:12;11.65;;;4.18;;
62724;SDS011;49026;52.600;4.694;2023-03-13T02:26:45;7.35;;;3.28;;
62724;SDS011;49026;52.600;4.694;2023-03-13T02:29:11;7.68;;;3.80;;
62724;SDS011;49026;52.600;4.694;2023-03-13T02:31:42;15.68;;;4.97;;
62724;SDS011;49026;52.600;4.694;2023-03-13T02:34:12;14.43;;;4.82;;
62724;SDS011;49026;52.600;4.694;2023-03-13T02:36:39;11.40;;;3.92;;
62724;SDS011;49026;52.600;4.694;2023-03-13T02:39:06;9.52;;;4.70;;
62724;SDS011;49026;52.600;4.694;2023-03-13T02:41:35;13.23;;;5.32;;
62724;SDS011;49026;52.600;4.694;2023-03-13T02:44:00;14.88;;;4.75;;
62724;SDS011;49026;52.600;4.694;2023-03-13T02:46:26;13.77;;;6.43;;
62724;SDS011;49026;52.600;4.694;2023-03-13T02:48:52;19.25;;;5.43;;
62724;SDS011;49026;52.600;4.694;2023-03-13T02:51:30;18.05;;;5.55;;
62724;SDS011;49026;52.600;4.694;2023-03-13T02:54:03;12.55;;;4.93;;
62724;SDS011;49026;52.600;4.694;2023-03-13T02:56:33;15.18;;;5.28;;
62724;SDS011;49026;52.600;4.694;2023-03-13T02:59:01;17.48;;;6.38;;
62724;SDS011;49026;52.600;4.694;2023-03-13T03:01:29;12.45;;;4.65;;
62724;SDS011;49026;52.600;4.694;2023-03-13T03:03:54;16.98;;;5.53;;
62724;SDS011;49026;52.600;4.694;2023-03-13T03:06:20;20.58;;;5.60;;
62724;SDS011;49026;52.600;4.694;2023-03-13T03:08:45;17.38;;;4.50;;
62724;SDS011;49026;52.600;4.694;2023-03-13T03:11:11;19.65;;;6.28;;
62724;SDS011;49026;52.600;4.694;2023-03-13T03:13:39;25.92;;;6.75;;
62724;SDS011;49026;52.600;4.694;2023-03-13T03:16:08;34.17;;;7.38;;
62724;SDS011;49026;52.600;4.694;2023-03-13T03:18:35;27.02;;;6.32;;
62724;SDS011;49026;52.600;4.694;2023-03-13T03:21:01;21.60;;;4.65;;
62724;SDS011;49026;52.600;4.694;2023-03-13T03:23:30;33.40;;;9.52;;
62724;SDS011;49026;52.600;4.694;2023-03-13T03:25:56;23.15;;;5.95;;
62724;SDS011;49026;52.600;4.694;2023-03-13T03:28:22;19.85;;;5.07;;
62724;SDS011;49026;52.600;4.694;2023-03-13T03:30:52;16.83;;;4.00;;
62724;SDS011;49026;52.600;4.694;2023-03-13T03:33:18;21.20;;;4.40;;
62724;SDS011;49026;52.600;4.694;2023-03-13T03:35:44;21.17;;;5.55;;
62724;SDS011;49026;52.600;4.694;2023-03-13T03:38:10;23.40;;;5.32;;
62724;SDS011;49026;52.600;4.694;2023-03-13T03:40:35;23.17;;;4.90;;
62724;SDS011;49026;52.600;4.694;2023-03-13T03:43:00;19.92;;;5.88;;
62724;SDS011;49026;52.600;4.694;2023-03-13T03:45:28;25.80;;;6.18;;
62724;SDS011;49026;52.600;4.694;2023-03-13T03:47:56;21.40;;;4.78;;
62724;SDS011;49026;52.600;4.694;2023-03-13T03:50:24;28.30;;;5.30;;
62724;SDS011;49026;52.600;4.694;2023-03-13T03:52:49;17.30;;;4.75;;
62724;SDS011;49026;52.600;4.694;2023-03-13T03:55:15;21.52;;;5.47;;
62724;SDS011;49026;52.600;4.694;2023-03-13T03:57:41;25.08;;;5.10;;
62724;SDS011;49026;52.600;4.694;2023-03-13T04:00:06;15.25;;;4.68;;
62724;SDS011;49026;52.600;4.694;2023-03-13T04:02:35;26.63;;;5.53;;
62724;SDS011;49026;52.600;4.694;2023-03-13T04:05:01;19.27;;;3.90;;
62724;SDS011;49026;52.600;4.694;2023-03-13T04:07:28;17.63;;;4.47;;
62724;SDS011;49026;52.600;4.694;2023-03-13T04:09:54;14.00;;;3.50;;
62724;SDS011;49026;52.600;4.694;2023-03-13T04:12:22;18.60;;;4.47;;
62724;SDS011;49026;52.600;4.694;2023-03-13T04:14:47;28.60;;;5.75;;
62724;SDS011;49026;52.600;4.694;2023-03-13T04:17:15;20.95;;;5.13;;
62724;SDS011;49026;52.600;4.694;2023-03-13T04:19:41;27.00;;;5.90;;
62724;SDS011;49026;52.600;4.694;2023-03-13T04:22:06;24.67;;;5.80;;
62724;SDS011;49026;52.600;4.694;2023-03-13T04:24:33;26.45;;;6.70;;
62724;SDS011;49026;52.600;4.694;2023-03-13T04:26:59;23.77;;;5.00;;
62724;SDS011;49026;52.600;4.694;2023-03-13T04:29:29;27.65;;;6.72;;
62724;SDS011;49026;52.600;4.694;2023-03-13T04:31:55;30.63;;;6.55;;
62724;SDS011;49026;52.600;4.694;2023-03-13T04:34:20;24.55;;;5.20;;
62724;SDS011;49026;52.600;4.694;2023-03-13T04:36:45;27.58;;;6.28;;
62724;SDS011;49026;52.600;4.694;2023-03-13T04:39:10;22.52;;;4.80;;
62724;SDS011;49026;52.600;4.694;2023-03-13T04:41:38;22.17;;;5.68;;
62724;SDS011;49026;52.600;4.694;2023-03-13T04:44:03;25.88;;;7.50;;
62724;SDS011;49026;52.600;4.694;2023-03-13T04:46:29;13.15;;;4.10;;
62724;SDS011;49026;52.600;4.694;2023-03-13T04:48:54;17.13;;;3.75;;
62724;SDS011;49026;52.600;4.694;2023-03-13T04:51:19;22.17;;;4.88;;
62724;SDS011;49026;52.600;4.694;2023-03-13T04:53:45;23.25;;;4.90;;
62724;SDS011;49026;52.600;4.694;2023-03-13T04:56:11;19.17;;;5.68;;
62724;SDS011;49026;52.600;4.694;2023-03-13T04:58:43;19.63;;;4.25;;
62724;SDS011;49026;52.600;4.694;2023-03-13T05:01:08;27.88;;;5.00;;
62724;SDS011;49026;52.600;4.694;2023-03-13T05:03:33;13.48;;;3.47;;
62724;SDS011;49026;52.600;4.694;2023-03-13T05:05:58;23.95;;;5.80;;
62724;SDS011;49026;52.600;4.694;2023-03-13T05:08:28;26.40;;;5.53;;
62724;SDS011;49026;52.600;4.694;2023-03-13T05:10:54;20.35;;;4.80;;
62724;SDS011;49026;52.600;4.694;2023-03-13T05:13:21;23.58;;;4.53;;
62724;SDS011;49026;52.600;4.694;2023-03-13T05:15:46;26.65;;;4.95;;
62724;SDS011;49026;52.600;4.694;2023-03-13T05:18:12;17.90;;;5.20;;
62724;SDS011;49026;52.600;4.694;2023-03-13T05:20:37;37.42;;;6.50;;
62724;SDS011;49026;52.600;4.694;2023-03-13T05:23:02;14.68;;;4.60;;
62724;SDS011;49026;52.600;4.694;2023-03-13T05:25:28;24.10;;;4.90;;
62724;SDS011;49026;52.600;4.694;2023-03-13T05:27:56;15.65;;;4.68;;
62724;SDS011;49026;52.600;4.694;2023-03-13T05:30:21;21.30;;;4.43;;
62724;SDS011;49026;52.600;4.694;2023-03-13T05:32:49;17.92;;;4.78;;
62724;SDS011;49026;52.600;4.694;2023-03-13T05:35:14;29.23;;;5.68;;
62724;SDS011;49026;52.600;4.694;2023-03-13T05:37:39;30.05;;;4.75;;
62724;SDS011;49026;52.600;4.694;2023-03-13T05:40:05;17.33;;;4.07;;
62724;SDS011;49026;52.600;4.694;2023-03-13T05:42:33;20.55;;;4.38;;
62724;SDS011;49026;52.600;4.694;2023-03-13T05:44:58;19.67;;;3.60;;
62724;SDS011;49026;52.600;4.694;2023-03-13T05:47:26;29.27;;;5.38;;
62724;SDS011;49026;52.600;4.694;2023-03-13T05:49:51;23.13;;;4.53;;
62724;SDS011;49026;52.600;4.694;2023-03-13T05:52:19;26.92;;;4.20;;
62724;SDS011;49026;52.600;4.694;2023-03-13T05:54:44;33.30;;;5.97;;
62724;SDS011;49026;52.600;4.694;2023-03-13T05:57:09;21.40;;;4.03;;
62724;SDS011;49026;52.600;4.694;2023-03-13T05:59:34;30.70;;;5.40;;
62724;SDS011;49026;52.600;4.694;2023-03-13T06:02:00;24.05;;;4.38;;
62724;SDS011;49026;52.600;4.694;2023-03-13T06:04:25;43.35;;;6.35;;
62724;SDS011;49026;52.600;4.694;2023-03-13T06:06:51;43.95;;;6.07;;
62724;SDS011;49026;52.600;4.694;2023-03-13T06:09:16;25.95;;;5.75;;
62724;SDS011;49026;52.600;4.694;2023-03-13T06:11:41;18.95;;;4.38;;
62724;SDS011;49026;52.600;4.694;2023-03-13T06:14:06;26.67;;;4.25;;
62724;SDS011;49026;52.600;4.694;2023-03-13T06:16:34;24.55;;;6.07;;
62724;SDS011;49026;52.600;4.694;2023-03-13T06:18:59;27.10;;;4.93;;
62724;SDS011;49026;52.600;4.694;2023-03-13T06:21:27;25.15;;;5.18;;
62724;SDS011;49026;52.600;4.694;2023-03-13T06:23:55;30.35;;;5.82;;
62724;SDS011;49026;52.600;4.694;2023-03-13T06:26:20;29.88;;;5.47;;
62724;SDS011;49026;52.600;4.694;2023-03-13T06:28:48;24.23;;;4.75;;
62724;SDS011;49026;52.600;4.694;2023-03-13T06:31:13;18.92;;;4.57;;
62724;SDS011;49026;52.600;4.694;2023-03-13T06:33:39;25.98;;;5.57;;
62724;SDS011;49026;52.600;4.694;2023-03-13T06:36:07;33.47;;;5.32;;
62724;SDS011;49026;52.600;4.694;2023-03-13T06:38:34;41.83;;;6.05;;
62724;SDS011;49026;52.600;4.694;2023-03-13T06:41:00;23.30;;;5.68;;
62724;SDS011;49026;52.600;4.694;2023-03-13T06:43:25;22.30;;;4.60;;
62724;SDS011;49026;52.600;4.694;2023-03-13T06:45:51;25.10;;;6.10;;
62724;SDS011;49026;52.600;4.694;2023-03-13T06:48:25;31.90;;;6.15;;
62724;SDS011;49026;52.600;4.694;2023-03-13T06:50:51;33.70;;;6.20;;
62724;SDS011;49026;52.600;4.694;2023-03-13T06:53:17;23.00;;;4.93;;
62724;SDS011;49026;52.600;4.694;2023-03-13T06:55:46;23.35;;;4.90;;
62724;SDS011;49026;52.600;4.694;2023-03-13T06:58:13;28.05;;;6.13;;
62724;SDS011;49026;52.600;4.694;2023-03-13T07:00:38;32.05;;;6.10;;
62724;SDS011;49026;52.600;4.694;2023-03-13T07:03:06;31.00;;;6.00;;
62724;SDS011;49026;52.600;4.694;2023-03-13T07:05:31;31.48;;;5.18;;
62724;SDS011;49026;52.600;4.694;2023-03-13T07:07:57;31.80;;;4.68;;
62724;SDS011;49026;52.600;4.694;2023-03-13T07:10:22;27.92;;;5.47;;
62724;SDS011;49026;52.600;4.694;2023-03-13T07:12:47;18.98;;;4.32;;
62724;SDS011;49026;52.600;4.694;2023-03-13T07:15:13;31.33;;;6.50;;
62724;SDS011;49026;52.600;4.694;2023-03-13T07:17:38;27.98;;;5.78;;
62724;SDS011;49026;52.600;4.694;2023-03-13T07:20:04;25.05;;;6.07;;
62724;SDS011;49026;52.600;4.694;2023-03-13T07:22:31;18.50;;;4.20;;
62724;SDS011;49026;52.600;4.694;2023-03-13T07:24:56;27.48;;;5.57;;
62724;SDS011;49026;52.600;4.694;2023-03-13T07:27:22;27.65;;;6.85;;
62724;SDS011;49026;52.600;4.694;2023-03-13T07:29:47;20.02;;;4.07;;
62724;SDS011;49026;52.600;4.694;2023-03-13T07:32:15;27.67;;;4.60;;
62724;SDS011;49026;52.600;4.694;2023-03-13T07:34:43;35.80;;;5.65;;
62724;SDS011;49026;52.600;4.694;2023-03-13T07:37:09;20.88;;;4.10;;
62724;SDS011;49026;52.600;4.694;2023-03-13T07:39:38;24.38;;;5.00;;
62724;SDS011;49026;52.600;4.694;2023-03-13T07:42:03;25.08;;;4.70;;
62724;SDS011;49026;52.600;4.694;2023-03-13T07:44:28;23.55;;;4.10;;
62724;SDS011;49026;52.600;4.694;2023-03-13T07:46:54;21.60;;;4.32;;
62724;SDS011;49026;52.600;4.694;2023-03-13T07:49:22;32.17;;;4.65;;
62724;SDS011;49026;52.600;4.694;2023-03-13T07:51:47;16.17;;;4.10;;
62724;SDS011;49026;52.600;4.694;2023-03-13T07:54:15;26.33;;;5.55;;
62724;SDS011;49026;52.600;4.694;2023-03-13T07:56:40;24.08;;;4.63;;
62724;SDS011;49026;52.600;4.694;2023-03-13T07:59:05;20.05;;;3.95;;
62724;SDS011;49026;52.600;4.694;2023-03-13T08:01:31;20.73;;;4.47;;
62724;SDS011;49026;52.600;4.694;2023-03-13T08:03:56;22.58;;;4.40;;
62724;SDS011;49026;52.600;4.694;2023-03-13T08:06:25;23.10;;;4.40;;
62724;SDS011;49026;52.600;4.694;2023-03-13T08:08:51;17.38;;;4.22;;
62724;SDS011;49026;52.600;4.694;2023-03-13T08:11:18;28.05;;;5.22;;
62724;SDS011;49026;52.600;4.694;2023-03-13T08:13:46;29.80;;;4.68;;
62724;SDS011;49026;52.600;4.694;2023-03-13T08:16:15;34.65;;;6.10;;
62724;SDS011;49026;52.600;4.694;2023-03-13T08:18:43;25.42;;;4.72;;
62724;SDS011;49026;52.600;4.694;2023-03-13T08:21:16;26.50;;;4.82;;
62724;SDS011;49026;52.600;4.694;2023-03-13T08:23:44;35.40;;;5.50;;
62724;SDS011;49026;52.600;4.694;2023-03-13T08:26:11;31.80;;;6.32;;
62724;SDS011;49026;52.600;4.694;2023-03-13T08:28:43;41.42;;;5.82;;
62724;SDS011;49026;52.600;4.694;2023-03-13T08:33:40;32.25;;;5.57;;
62724;SDS011;49026;52.600;4.694;2023-03-13T08:36:10;32.83;;;4.40;;
62724;SDS011;49026;52.600;4.694;2023-03-13T08:38:48;24.67;;;4.43;;
62724;SDS011;49026;52.600;4.694;2023-03-13T08:41:17;23.13;;;4.00;;
62724;SDS011;49026;52.600;4.694;2023-03-13T08:43:46;27.25;;;4.70;;
62724;SDS011;49026;52.600;4.694;2023-03-13T08:46:15;23.05;;;4.50;;
62724;SDS011;49026;52.600;4.694;2023-03-13T08:48:40;17.13;;;3.58;;
62724;SDS011;49026;52.600;4.694;2023-03-13T08:51:12;24.88;;;4.80;;
62724;SDS011;49026;52.600;4.694;2023-03-13T08:53:39;26.77;;;4.47;;
62724;SDS011;49026;52.600;4.694;2023-03-13T08:56:08;13.55;;;3.30;;
62724;SDS011;49026;52.600;4.694;2023-03-13T08:58:35;21.52;;;4.25;;
62724;SDS011;49026;52.600;4.694;2023-03-13T09:01:06;22.30;;;5.70;;
62724;SDS011;49026;52.600;4.694;2023-03-13T09:03:33;32.35;;;6.07;;
62724;SDS011;49026;52.600;4.694;2023-03-13T09:06:01;19.73;;;3.90;;
62724;SDS011;49026;52.600;4.694;2023-03-13T09:08:27;25.58;;;3.80;;
62724;SDS011;49026;52.600;4.694;2023-03-13T09:10:54;22.27;;;3.97;;
62724;SDS011;49026;52.600;4.694;2023-03-13T09:13:26;25.85;;;4.00;;
62724;SDS011;49026;52.600;4.694;2023-03-13T09:15:54;25.60;;;4.53;;
62724;SDS011;49026;52.600;4.694;2023-03-13T09:18:20;20.33;;;3.30;;
62724;SDS011;49026;52.600;4.694;2023-03-13T09:20:50;23.38;;;4.80;;
62724;SDS011;49026;52.600;4.694;2023-03-13T09:23:16;28.88;;;5.90;;
62724;SDS011;49026;52.600;4.694;2023-03-13T09:25:42;26.30;;;4.05;;
62724;SDS011;49026;52.600;4.694;2023-03-13T09:28:10;17.52;;;3.88;;
62724;SDS011;49026;52.600;4.694;2023-03-13T09:30:35;27.08;;;5.40;;
62724;SDS011;49026;52.600;4.694;2023-03-13T09:33:01;24.15;;;4.85;;
62724;SDS011;49026;52.600;4.694;2023-03-13T09:35:26;27.75;;;4.53;;
62724;SDS011;49026;52.600;4.694;2023-03-13T09:37:51;28.70;;;4.72;;
62724;SDS011;49026;52.600;4.694;2023-03-13T09:40:17;22.85;;;4.50;;
62724;SDS011;49026;52.600;4.694;2023-03-13T09:42:50;28.13;;;4.63;;
62724;SDS011;49026;52.600;4.694;2023-03-13T09:45:39;28.48;;;5.32;;
62724;SDS011;49026;52.600;4.694;2023-03-13T09:50:39;27.10;;;5.47;;
62724;SDS011;49026;52.600;4.694;2023-03-13T09:53:17;31.50;;;5.55;;
62724;SDS011;49026;52.600;4.694;2023-03-13T09:55:51;27.25;;;5.00;;
62724;SDS011;49026;52.600;4.694;2023-03-13T09:58:21;24.38;;;3.83;;
62724;SDS011;49026;52.600;4.694;2023-03-13T10:01:01;30.42;;;5.03;;
62724;SDS011;49026;52.600;4.694;2023-03-13T10:03:41;27.45;;;5.47;;
62724;SDS011;49026;52.600;4.694;2023-03-13T10:06:20;20.23;;;4.60;;
62724;SDS011;49026;52.600;4.694;2023-03-13T10:08:48;33.10;;;5.90;;
62724;SDS011;49026;52.600;4.694;2023-03-13T10:14:02;23.92;;;4.85;;
62724;SDS011;49026;52.600;4.694;2023-03-13T10:19:41;21.67;;;4.45;;
62724;SDS011;49026;52.600;4.694;2023-03-13T10:22:19;18.40;;;3.17;;
62724;SDS011;49026;52.600;4.694;2023-03-13T10:27:20;18.15;;;3.90;;
62724;SDS011;49026;52.600;4.694;2023-03-13T10:29:45;19.73;;;3.30;;
62724;SDS011;49026;52.600;4.694;2023-03-13T10:32:15;22.65;;;4.20;;
62724;SDS011;49026;52.600;4.694;2023-03-13T10:34:47;24.25;;;3.78;;
62724;SDS011;49026;52.600;4.694;2023-03-13T10:37:18;21.98;;;3.92;;
62724;SDS011;49026;52.600;4.694;2023-03-13T10:39:48;17.95;;;4.18;;
62724;SDS011;49026;52.600;4.694;2023-03-13T10:42:30;17.15;;;3.40;;
62724;SDS011;49026;52.600;4.694;2023-03-13T10:45:00;15.73;;;3.42;;
62724;SDS011;49026;52.600;4.694;2023-03-13T10:47:31;19.63;;;3.33;;
62724;SDS011;49026;52.600;4.694;2023-03-13T10:49:58;13.85;;;3.60;;
62724;SDS011;49026;52.600;4.694;2023-03-13T10:52:42;18.40;;;3.95;;
62724;SDS011;49026;52.600;4.694;2023-03-13T10:55:11;21.58;;;3.50;;
62724;SDS011;49026;52.600;4.694;2023-03-13T10:57:42;19.80;;;4.40;;
62724;SDS011;49026;52.600;4.694;2023-03-13T11:02:47;24.48;;;4.65;;
62724;SDS011;49026;52.600;4.694;2023-03-13T11:07:47;16.33;;;3.63;;
62724;SDS011;49026;52.600;4.694;2023-03-13T11:10:16;26.17;;;4.30;;
62724;SDS011;49026;52.600;4.694;2023-03-13T11:12:50;24.42;;;4.00;;
62724;SDS011;49026;52.600;4.694;2023-03-13T11:15:34;21.27;;;4.32;;
62724;SDS011;49026;52.600;4.694;2023-03-13T11:18:18;25.10;;;5.70;;
62724;SDS011;49026;52.600;4.694;2023-03-13T11:21:02;23.48;;;4.43;;
62724;SDS011;49026;52.600;4.694;2023-03-13T11:23:49;28.92;;;5.00;;
62724;SDS011;49026;52.600;4.694;2023-03-13T11:26:29;33.42;;;6.50;;
62724;SDS011;49026;52.600;4.694;2023-03-13T11:29:05;26.95;;;4.80;;
62724;SDS011;49026;52.600;4.694;2023-03-13T11:31:57;26.08;;;5.72;;
62724;SDS011;49026;52.600;4.694;2023-03-13T11:34:30;26.98;;;4.57;;
62724;SDS011;49026;52.600;4.694;2023-03-13T11:37:04;26.95;;;4.85;;
62724;SDS011;49026;52.600;4.694;2023-03-13T11:50:28;28.65;;;4.97;;
62724;SDS011;49026;52.600;4.694;2023-03-13T12:01:30;24.15;;;5.22;;
62724;SDS011;49026;52.600;4.694;2023-03-13T12:06:28;30.58;;;6.75;;
62724;SDS011;49026;52.600;4.694;2023-03-13T12:08:57;33.95;;;5.43;;
62724;SDS011;49026;52.600;4.694;2023-03-13T12:12:14;21.15;;;4.50;;
62724;SDS011;49026;52.600;4.694;2023-03-13T12:14:20;29.15;;;5.20;;
62724;SDS011;49026;52.600;4.694;2023-03-13T12:16:55;31.35;;;5.47;;
62724;SDS011;49026;52.600;4.694;2023-03-13T12:25:03;31.05;;;5.28;;
62724;SDS011;49026;52.600;4.694;2023-03-13T12:27:45;26.35;;;5.55;;
62724;SDS011;49026;52.600;4.694;2023-03-13T12:30:36;26.98;;;5.20;;
62724;SDS011;49026;52.600;4.694;2023-03-13T12:33:15;30.98;;;5.70;;
62724;SDS011;49026;52.600;4.694;2023-03-13T12:35:47;24.85;;;4.85;;
62724;SDS011;49026;52.600;4.694;2023-03-13T12:38:21;29.58;;;5.35;;
62724;SDS011;49026;52.600;4.694;2023-03-13T12:41:08;24.05;;;5.95;;
62724;SDS011;49026;52.600;4.694;2023-03-13T12:43:46;31.13;;;5.28;;
62724;SDS011;49026;52.600;4.694;2023-03-13T12:46:20;31.95;;;5.45;;
62724;SDS011;49026;52.600;4.694;2023-03-13T12:54:59;31.27;;;5.68;;
62724;SDS011;49026;52.600;4.694;2023-03-13T13:00:17;29.48;;;5.03;;
62724;SDS011;49026;52.600;4.694;2023-03-13T13:02:46;37.47;;;5.72;;
62724;SDS011;49026;52.600;4.694;2023-03-13T13:05:25;32.80;;;5.13;;
62724;SDS011;49026;52.600;4.694;2023-03-13T13:07:51;34.70;;;6.80;;
62724;SDS011;49026;52.600;4.694;2023-03-13T13:10:22;24.20;;;5.07;;
62724;SDS011;49026;52.600;4.694;2023-03-13T13:15:59;23.63;;;4.85;;
62724;SDS011;49026;52.600;4.694;2023-03-13T13:23:36;32.65;;;5.63;;
62724;SDS011;49026;52.600;4.694;2023-03-13T13:28:56;26.73;;;4.90;;
62724;SDS011;49026;52.600;4.694;2023-03-13T13:39:33;38.72;;;6.13;;
62724;SDS011;49026;52.600;4.694;2023-03-13T13:42:00;36.83;;;6.35;;
62724;SDS011;49026;52.600;4.694;2023-03-13T13:44:27;27.77;;;4.90;;
62724;SDS011;49026;52.600;4.694;2023-03-13T13:46:56;31.17;;;6.30;;
62724;SDS011;49026;52.600;4.694;2023-03-13T13:49:31;30.77;;;6.25;;
62724;SDS011;49026;52.600;4.694;2023-03-13T13:57:19;27.20;;;4.63;;
62724;SDS011;49026;52.600;4.694;2023-03-13T13:59:48;32.85;;;6.07;;
62724;SDS011;49026;52.600;4.694;2023-03-13T14:02:25;23.88;;;4.70;;
62724;SDS011;49026;52.600;4.694;2023-03-13T14:05:03;40.45;;;6.65;;
62724;SDS011;49026;52.600;4.694;2023-03-13T14:07:42;41.70;;;6.75;;
62724;SDS011;49026;52.600;4.694;2023-03-13T14:13:00;32.83;;;6.18;;
62724;SDS011;49026;52.600;4.694;2023-03-13T14:15:31;30.92;;;5.80;;
62724;SDS011;49026;52.600;4.694;2023-03-13T14:17:59;33.78;;;6.47;;
62724;SDS011;49026;52.600;4.694;2023-03-13T14:20:26;43.50;;;6.63;;
62724;SDS011;49026;52.600;4.694;2023-03-13T14:22:54;35.78;;;6.88;;
62724;SDS011;49026;52.600;4.694;2023-03-13T14:25:21;35.40;;;7.68;;
62724;SDS011;49026;52.600;4.694;2023-03-13T14:27:51;32.83;;;5.00;;
62724;SDS011;49026;52.600;4.694;2023-03-13T14:30:20;35.75;;;8.05;;
62724;SDS011;49026;52.600;4.694;2023-03-13T14:32:46;37.00;;;6.85;;
62724;SDS011;49026;52.600;4.694;2023-03-13T14:35:14;33.30;;;6.47;;
62724;SDS011;49026;52.600;4.694;2023-03-13T14:37:46;37.08;;;6.45;;
62724;SDS011;49026;52.600;4.694;2023-03-13T14:43:03;20.88;;;4.22;;
62724;SDS011;49026;52.600;4.694;2023-03-13T14:45:34;28.85;;;5.57;;
62724;SDS011;49026;52.600;4.694;2023-03-13T14:53:35;43.95;;;6.90;;
62724;SDS011;49026;52.600;4.694;2023-03-13T14:56:10;30.25;;;6.18;;
62724;SDS011;49026;52.600;4.694;2023-03-13T14:58:38;33.85;;;7.03;;
62724;SDS011;49026;52.600;4.694;2023-03-13T15:03:58;30.58;;;4.88;;
62724;SDS011;49026;52.600;4.694;2023-03-13T15:06:24;34.45;;;6.03;;
62724;SDS011;49026;52.600;4.694;2023-03-13T15:09:12;29.88;;;6.03;;
62724;SDS011;49026;52.600;4.694;2023-03-13T15:11:55;38.00;;;5.95;;
62724;SDS011;49026;52.600;4.694;2023-03-13T15:17:02;23.42;;;4.30;;
62724;SDS011;49026;52.600;4.694;2023-03-13T15:19:28;31.63;;;6.13;;
62724;SDS011;49026;52.600;4.694;2023-03-13T15:21:57;41.22;;;6.60;;
62724;SDS011;49026;52.600;4.694;2023-03-13T15:24:25;34.72;;;6.15;;
62724;SDS011;49026;52.600;4.694;2023-03-13T15:26:53;27.00;;;5.97;;
62724;SDS011;49026;52.600;4.694;2023-03-13T15:29:18;28.10;;;4.97;;
62724;SDS011;49026;52.600;4.694;2023-03-13T15:31:44;40.25;;;6.57;;
62724;SDS011;49026;52.600;4.694;2023-03-13T15:34:09;30.70;;;5.22;;
62724;SDS011;49026;52.600;4.694;2023-03-13T15:36:37;51.15;;;7.47;;
62724;SDS011;49026;52.600;4.694;2023-03-13T15:39:15;27.57;;;5.67;;
62724;SDS011;49026;52.600;4.694;2023-03-13T15:41:44;35.45;;;5.85;;
62724;SDS011;49026;52.600;4.694;2023-03-13T15:44:12;29.65;;;5.10;;
62724;SDS011;49026;52.600;4.694;2023-03-13T15:46:37;30.88;;;6.20;;
62724;SDS011;49026;52.600;4.694;2023-03-13T15:49:02;37.13;;;5.85;;
62724;SDS011;49026;52.600;4.694;2023-03-13T15:51:28;36.47;;;6.68;;
62724;SDS011;49026;52.600;4.694;2023-03-13T15:53:55;35.33;;;6.82;;
62724;SDS011;49026;52.600;4.694;2023-03-13T15:56:21;28.17;;;6.28;;
62724;SDS011;49026;52.600;4.694;2023-03-13T15:58:49;32.25;;;6.43;;
62724;SDS011;49026;52.600;4.694;2023-03-13T16:01:15;32.58;;;6.63;;
62724;SDS011;49026;52.600;4.694;2023-03-13T16:03:42;36.90;;;5.68;;
62724;SDS011;49026;52.600;4.694;2023-03-13T16:06:12;30.52;;;5.95;;
62724;SDS011;49026;52.600;4.694;2023-03-13T16:08:51;48.05;;;7.32;;
62724;SDS011;49026;52.600;4.694;2023-03-13T16:11:17;44.92;;;6.50;;
62724;SDS011;49026;52.600;4.694;2023-03-13T16:13:47;25.90;;;5.53;;
62724;SDS011;49026;52.600;4.694;2023-03-13T16:16:32;32.58;;;6.82;;
62724;SDS011;49026;52.600;4.694;2023-03-13T16:19:03;38.75;;;5.63;;
62724;SDS011;49026;52.600;4.694;2023-03-13T16:21:30;36.72;;;5.45;;
62724;SDS011;49026;52.600;4.694;2023-03-13T16:23:58;37.35;;;5.50;;
62724;SDS011;49026;52.600;4.694;2023-03-13T16:26:25;31.27;;;5.90;;
62724;SDS011;49026;52.600;4.694;2023-03-13T16:28:54;41.20;;;6.75;;